»·PEaware :: DAL2437 KSLC-KGPI

DAL2437 :: KSLC-KGPI

FLIGHT INFORMATION

Flight Status: Arrived
Operator:
Delta Air Lines
More flights by this operator :: More flights under this callsign
Pilot: Miguel P. (25458)
Aircraft: CANADAIR CL-600 CRJ-200
(CRJ2)
More flights by this aircraft type
Origin: KSLC Salt Lake City Intl
United States
Destination: KGPI Glacier Park Intl
United States
More flights between these airports :: More routes between these airports
Route: RUGGD1 HOLTR DBS MSO FCA
File this flight plan on PilotEdge
Remarks:
Altitude:
(Current/Filed)
36,000ft
Speed:
(Current/Filed)
475kts
Departed: 11-Aug-19 08:21 AM
Arrived: 11-Aug-19 09:28 AM
Distance/Time
Traveled:
461nm/1:06
Distance/Time
To Go:
Arrived

Flight Plot

Page will automatically refresh every two minutes.

Flight plan parsing failed; only flown route is shown


Map Options




Map Legend


Flown Route
Filed Route
Departure Airport
Arrival Airport
Navaid (VOR, NDB)
Fix

Horizontal Profiles

Position Reports

Time Latitude Longitude Heading Altitude Ground
Speed
11-Aug-19 07:50 40.787114 -111.987312 206 4225ft 0kts
11-Aug-19 07:51 40.787114 -111.987312 206 4225ft 0kts
11-Aug-19 07:52 40.787114 -111.987312 206 4225ft 0kts
11-Aug-19 07:53 40.787114 -111.987312 206 4225ft 0kts
11-Aug-19 07:54 40.787114 -111.987312 206 4225ft 0kts
11-Aug-19 07:55 40.787114 -111.987312 206 4225ft 0kts
11-Aug-19 07:56 40.787114 -111.987312 206 4225ft 0kts
11-Aug-19 07:57 40.787114 -111.987312 206 4225ft 0kts
11-Aug-19 07:58 40.787114 -111.987312 206 4225ft 0kts
11-Aug-19 07:59 40.787114 -111.987312 206 4225ft 0kts
11-Aug-19 08:00 40.787114 -111.987312 206 4225ft 0kts
11-Aug-19 08:01 40.787114 -111.987312 206 4225ft 0kts
11-Aug-19 08:02 40.787114 -111.987312 206 4225ft 0kts
11-Aug-19 08:03 40.787114 -111.987312 206 4225ft 0kts
11-Aug-19 08:04 40.787114 -111.987312 206 4225ft 0kts
11-Aug-19 08:05 40.787114 -111.987312 206 4225ft 0kts
11-Aug-19 08:06 40.787114 -111.987312 206 4225ft 0kts
11-Aug-19 08:07 40.787114 -111.987312 206 4225ft 0kts
11-Aug-19 08:08 40.787191 -111.987262 206 4225ft 2kts
11-Aug-19 08:09 40.787510 -111.986690 284 4224ft 2kts
11-Aug-19 08:10 40.787490 -111.986611 292 4224ft 0kts
11-Aug-19 08:11 40.787490 -111.986611 291 4224ft 0kts
11-Aug-19 08:12 40.787841 -111.987979 285 4225ft 13kts
11-Aug-19 08:13 40.787791 -111.990198 263 4224ft 3kts
11-Aug-19 08:14 40.788673 -111.993935 355 4221ft 16kts
11-Aug-19 08:15 40.793958 -111.994560 354 4223ft 20kts
11-Aug-19 08:16 40.798994 -111.995098 356 4226ft 9kts
11-Aug-19 08:17 40.801548 -111.995395 355 4225ft 28kts
11-Aug-19 08:18 40.807075 -111.996045 349 4221ft 9kts
11-Aug-19 08:19 40.807357 -111.999069 216 4222ft 15kts
11-Aug-19 08:20 40.782154 -111.995982 174 4463ft 165kts
11-Aug-19 08:21 40.769791 -112.037033 305 6023ft 226kts
11-Aug-19 08:22 40.811120 -112.107278 306 7659ft 242kts
11-Aug-19 08:23 40.856867 -112.183911 306 8548ft 285kts
11-Aug-19 08:24 40.921496 -112.236849 11 10675ft 306kts
11-Aug-19 08:25 40.972176 -112.138037 81 12497ft 385kts
11-Aug-19 08:26 40.996107 -111.994111 64 16088ft 415kts
11-Aug-19 08:27 41.070394 -111.869359 50 19336ft 442kts
11-Aug-19 08:28 41.164121 -111.761937 13 22226ft 461kts
11-Aug-19 08:29 41.293386 -111.730318 6 24894ft 481kts
11-Aug-19 08:30 41.429120 -111.691909 13 27291ft 509kts
11-Aug-19 08:31 41.569358 -111.637033 13 29478ft 534kts
11-Aug-19 08:32 41.715759 -111.579364 13 31597ft 555kts
11-Aug-19 08:33 41.868944 -111.531231 6 33356ft 568kts
11-Aug-19 08:34 42.026026 -111.495681 5 34727ft 576kts
11-Aug-19 08:35 42.183648 -111.459881 5 35959ft 569kts
11-Aug-19 08:36 42.340762 -111.435677 341 36174ft 545kts
11-Aug-19 08:37 42.477858 -111.508636 334 36174ft 537kts
11-Aug-19 08:38 42.622486 -111.569736 334 36173ft 540kts
11-Aug-19 08:39 42.768270 -111.631904 334 36182ft 542kts
11-Aug-19 08:40 42.913890 -111.694310 334 36185ft 543kts
11-Aug-19 08:41 43.060023 -111.757219 334 36189ft 544kts
11-Aug-19 08:42 43.205528 -111.820196 334 36218ft 544kts
11-Aug-19 08:43 43.351364 -111.883601 334 36217ft 545kts
11-Aug-19 08:44 43.496834 -111.947181 334 36203ft 546kts
11-Aug-19 08:45 43.643239 -112.011531 334 36189ft 547kts
11-Aug-19 08:46 43.788636 -112.075719 334 36167ft 547kts
11-Aug-19 08:47 43.935898 -112.141085 334 36163ft 547kts
11-Aug-19 08:48 44.083165 -112.207155 331 36163ft 544kts
11-Aug-19 08:49 44.220377 -112.292308 327 36146ft 537kts
11-Aug-19 08:50 44.356342 -112.378510 327 36147ft 536kts
11-Aug-19 08:51 44.494036 -112.466260 327 36134ft 535kts
11-Aug-19 08:52 44.629735 -112.553183 327 36135ft 534kts
11-Aug-19 08:53 44.765826 -112.640809 327 36137ft 533kts
11-Aug-19 08:54 44.901969 -112.728942 327 36147ft 532kts
11-Aug-19 08:55 45.039104 -112.818149 327 36144ft 531kts
11-Aug-19 08:56 45.173943 -112.906346 327 36110ft 530kts
11-Aug-19 08:57 45.309144 -112.995244 327 36103ft 528kts
11-Aug-19 08:58 45.441523 -113.082762 328 36099ft 528kts
11-Aug-19 08:59 45.574740 -113.171272 328 36107ft 527kts
11-Aug-19 09:00 45.709646 -113.261373 328 36111ft 526kts
11-Aug-19 09:01 45.843323 -113.351147 328 36113ft 526kts
11-Aug-19 09:02 45.976332 -113.440938 329 36115ft 526kts
11-Aug-19 09:03 46.109232 -113.531139 329 36109ft 524kts
11-Aug-19 09:04 46.241913 -113.621666 329 36086ft 523kts
11-Aug-19 09:05 46.374857 -113.712874 328 36090ft 522kts
11-Aug-19 09:06 46.507329 -113.804226 328 35895ft 515kts
11-Aug-19 09:07 46.639083 -113.895681 329 33195ft 519kts
11-Aug-19 09:08 46.768704 -113.986076 330 31705ft 503kts
11-Aug-19 09:09 46.895281 -114.074974 335 29577ft 487kts
11-Aug-19 09:10 47.028737 -114.092162 357 27109ft 470kts
11-Aug-19 09:11 47.158097 -114.100927 356 24190ft 448kts
11-Aug-19 09:12 47.278256 -114.109325 356 23996ft 407kts
11-Aug-19 09:13 47.391612 -114.117274 356 24004ft 408kts
11-Aug-19 09:14 47.504153 -114.125171 356 23809ft 377kts
11-Aug-19 09:15 47.609087 -114.132557 356 22470ft 370kts
11-Aug-19 09:16 47.711972 -114.139850 355 21222ft 361kts
11-Aug-19 09:17 47.805051 -114.146417 354 19509ft 310kts
11-Aug-19 09:18 47.889865 -114.152549 353 16640ft 293kts
11-Aug-19 09:19 47.969941 -114.158352 354 13888ft 277kts
11-Aug-19 09:20 48.042294 -114.163546 355 11458ft 249kts
11-Aug-19 09:21 48.107725 -114.168241 356 9292ft 217kts
11-Aug-19 09:22 48.156605 -114.211659 313 6949ft 208kts
11-Aug-19 09:23 48.193318 -114.271523 312 5591ft 165kts
11-Aug-19 09:24 48.231689 -114.308129 8 5020ft 180kts
11-Aug-19 09:25 48.277053 -114.290649 34 3524ft 155kts
11-Aug-19 09:26 48.310266 -114.255587 39 2971ft 91kts
11-Aug-19 09:27 48.317558 -114.247016 126 2976ft 0kts
11-Aug-19 09:28 48.314077 -114.249689 214 2974ft 30kts
11-Aug-19 09:29 48.307816 -114.254350 141 2967ft 12kts

Navigation Log

Ident Type
Flight plan parsing failed, navigation log unavailable